createdAt,value
2019-01-03T00:02:20.823Z,122.90
2019-01-03T00:05:03.525Z,126.97
2019-01-03T00:07:49.447Z,131.07
2019-01-03T00:10:49.637Z,121.67
2019-01-03T00:13:33.107Z,120.67
2019-01-03T00:16:12.698Z,117.57
2019-01-03T00:19:08.582Z,117.47
2019-01-03T00:21:54.929Z,126.07
2019-01-03T00:24:40.581Z,126.53
2019-01-03T00:27:33.673Z,131.60
2019-01-03T00:30:35.840Z,122.03
2019-01-03T00:33:36.743Z,132.00
2019-01-03T00:36:22.418Z,118.87
2019-01-03T00:39:02.870Z,123.80
2019-01-03T00:41:49.939Z,116.87
2019-01-03T00:44:32.750Z,126.10
2019-01-03T00:47:32.208Z,129.07
2019-01-03T00:50:21.983Z,124.57
2019-01-03T00:53:07.793Z,130.90
2019-01-03T00:55:54.878Z,117.20
2019-01-03T00:58:36.376Z,118.73
2019-01-03T01:01:35.500Z,121.93
2019-01-03T01:04:21.027Z,120.07
2019-01-03T01:07:00.724Z,122.63
2019-01-03T01:09:41.083Z,131.77
2019-01-03T01:12:34.218Z,127.97
2019-01-03T01:15:33.482Z,128.60
2019-01-03T01:18:20.663Z,126.07
2019-01-03T01:24:42.418Z,133.50
2019-01-03T01:27:21.600Z,134.20
2019-01-03T01:30:16.948Z,126.43
2019-01-03T01:33:19.150Z,128.20
2019-01-03T01:36:04.855Z,131.23
2019-01-03T01:38:54.594Z,130.63
2019-01-03T01:41:52.349Z,124.37
2019-01-03T01:44:45.307Z,132.13
2019-01-03T01:47:31.041Z,137.97
2019-01-03T01:50:23.894Z,133.57
2019-01-03T01:53:05.755Z,139.97
2019-01-03T01:55:41.560Z,129.20
2019-01-03T01:58:43.658Z,136.90
2019-01-03T02:01:40.117Z,131.50
2019-01-03T02:04:39.605Z,130.53
2019-01-03T02:07:35.761Z,143.60
2019-01-03T02:10:29.155Z,131.80
2019-01-03T02:13:34.273Z,138.77
2019-01-03T02:16:20.772Z,127.73
2019-01-03T02:19:08.462Z,133.70
2019-01-03T02:21:53.585Z,132.77
2019-01-03T02:24:33.379Z,132.77
2019-01-03T02:27:23.165Z,134.43
2019-01-03T02:30:05.924Z,135.93
2019-01-03T02:33:02.701Z,135.83
2019-01-03T02:35:48.610Z,127.27
2019-01-03T02:38:36.092Z,135.77
2019-01-03T02:41:20.037Z,130.23
2019-01-03T02:44:07.403Z,134.73
2019-01-03T02:46:53.037Z,130.93
2019-01-03T02:49:52.470Z,138.90
2019-01-03T02:52:39.668Z,144.13
2019-01-03T02:55:25.784Z,134.27
2019-01-03T02:58:11.391Z,122.53
2019-01-03T03:00:57.128Z,111.30
2019-01-03T03:03:45.273Z,115.53
2019-01-03T03:06:35.826Z,119.80
2019-01-03T03:09:17.056Z,118.03
2019-01-03T03:12:02.434Z,115.80
2019-01-03T03:14:43.307Z,119.80
2019-01-03T03:17:39.188Z,121.03
2019-01-03T03:20:25.444Z,121.93
2019-01-03T03:23:18.643Z,117.47
2019-01-03T03:26:01.822Z,112.57
2019-01-03T03:29:03.722Z,114.63
2019-01-03T03:31:59.496Z,118.17
2019-01-03T03:34:41.605Z,115.13
2019-01-03T03:37:38.424Z,124.70
2019-01-03T03:40:24.712Z,122.00
2019-01-03T03:43:22.541Z,114.83
2019-01-03T03:46:09.750Z,117.23
2019-01-03T03:48:55.842Z,110.43
2019-01-03T03:51:49.453Z,116.27
2019-01-03T03:54:43.299Z,118.33
2019-01-03T03:57:29.303Z,128.87
2019-01-03T04:00:11.129Z,113.97
2019-01-03T04:02:57.454Z,121.90
2019-01-03T04:05:43.920Z,116.83
2019-01-03T04:08:38.732Z,116.27
2019-01-03T04:11:43.745Z,116.73
2019-01-03T04:14:29.590Z,121.37
2019-01-03T04:17:13.196Z,116.10
2019-01-03T04:20:03.259Z,118.50
2019-01-03T04:22:53.398Z,115.20
2019-01-03T04:25:46.513Z,116.13
2019-01-03T04:28:36.313Z,115.00
2019-01-03T04:31:22.526Z,113.17
2019-01-03T04:34:09.788Z,115.40
2019-01-03T04:36:56.850Z,112.63
2019-01-03T04:39:56.021Z,119.97
2019-01-03T04:42:52.707Z,122.47
2019-01-03T04:45:48.740Z,115.10
2019-01-03T04:48:30.839Z,118.23
2019-01-03T04:51:13.844Z,118.07
2019-01-03T04:53:59.284Z,115.53
2019-01-03T04:56:44.786Z,109.90
2019-01-03T04:59:29.064Z,112.67
2019-01-03T05:02:15.166Z,112.53
2019-01-03T05:05:06.023Z,108.60
2019-01-03T05:07:51.938Z,118.73
2019-01-03T05:10:37.649Z,118.20
2019-01-03T05:13:43.297Z,119.90
2019-01-03T05:16:29.457Z,110.70
2019-01-03T05:19:19.475Z,110.70
2019-01-03T05:22:09.690Z,114.07
2019-01-03T05:24:49.764Z,112.03
2019-01-03T05:27:48.956Z,116.73
2019-01-03T05:30:46.213Z,112.53
2019-01-03T05:33:32.283Z,111.87
2019-01-03T05:36:19.621Z,117.33
2019-01-03T05:39:05.804Z,113.93
2019-01-03T05:41:53.678Z,109.73
2019-01-03T05:44:51.699Z,110.67
2019-01-03T05:47:40.991Z,119.83
2019-01-03T05:50:31.654Z,114.67
2019-01-03T05:53:19.292Z,113.90
2019-01-03T05:56:09.752Z,113.30
2019-01-03T05:58:49.089Z,116.17
2019-01-03T06:01:41.902Z,118.83
2019-01-03T06:04:40.742Z,114.77
2019-01-03T06:07:40.215Z,118.37
2019-01-03T06:10:34.483Z,115.70
2019-01-03T06:13:30.350Z,120.23
2019-01-03T06:16:21.380Z,111.40
2019-01-03T06:19:09.690Z,122.20
2019-01-03T06:21:56.956Z,111.23
2019-01-03T06:24:54.452Z,114.70
2019-01-03T06:27:40.231Z,128.33
2019-01-03T06:30:39.683Z,115.07
2019-01-03T06:33:32.950Z,117.30
2019-01-03T06:36:29.341Z,120.80
2019-01-03T06:39:30.216Z,117.53
2019-01-03T06:42:26.736Z,115.73
2019-01-03T06:45:12.141Z,116.90
2019-01-03T06:47:58.372Z,121.37
2019-01-03T06:50:54.998Z,126.00
2019-01-03T06:53:48.303Z,121.07
2019-01-03T06:56:47.444Z,121.50
2019-01-03T06:59:43.863Z,119.27
2019-01-03T07:02:30.858Z,125.20
2019-01-03T07:05:17.718Z,121.17
2019-01-03T07:08:03.603Z,126.37
2019-01-03T07:10:56.873Z,120.47
2019-01-03T07:13:52.981Z,126.20
2019-01-03T07:16:53.363Z,121.33
2019-01-03T07:19:39.132Z,119.97
2019-01-03T07:22:22.416Z,129.57
2019-01-03T07:25:16.115Z,124.10
2019-01-03T07:28:02.407Z,130.67
2019-01-03T07:30:57.662Z,124.07
2019-01-03T07:33:50.730Z,124.00
2019-01-03T07:36:46.062Z,122.40
2019-01-03T07:39:45.159Z,123.10
2019-01-03T07:42:31.964Z,129.43
2019-01-03T07:45:21.669Z,124.10
2019-01-03T07:48:15.075Z,127.97
2019-01-03T07:51:14.497Z,124.07
2019-01-03T07:54:02.444Z,124.47
2019-01-03T07:56:50.202Z,121.43
2019-01-03T07:59:40.596Z,127.27
2019-01-03T08:02:27.109Z,123.50
2019-01-03T08:05:14.785Z,118.30
2019-01-03T08:08:07.003Z,122.43
2019-01-03T08:10:56.014Z,122.60
2019-01-03T08:14:01.989Z,122.00
2019-01-03T08:16:54.059Z,118.63
2019-01-03T08:20:14.082Z,127.70
2019-01-03T08:23:01.906Z,123.83
2019-01-03T08:25:57.491Z,116.40
2019-01-03T08:28:39.213Z,117.07
2019-01-03T08:31:35.566Z,122.50
2019-01-03T08:34:22.163Z,124.33
2019-01-03T08:37:24.533Z,117.37
2019-01-03T08:40:10.906Z,122.73
2019-01-03T08:42:56.919Z,126.90
2019-01-03T08:45:42.741Z,124.03
2019-01-03T08:48:31.020Z,123.67
2019-01-03T08:51:36.710Z,121.23
2019-01-03T08:54:29.069Z,120.00
2019-01-03T08:57:20.117Z,114.40
2019-01-03T09:00:10.627Z,123.13
2019-01-03T09:02:56.887Z,124.20
2019-01-03T09:05:45.790Z,119.33
2019-01-03T09:08:37.013Z,121.07
2019-01-03T09:11:24.671Z,116.10
2019-01-03T09:14:13.834Z,131.23
2019-01-03T09:16:57.726Z,115.67
2019-01-03T09:20:04.530Z,121.93
2019-01-03T09:22:52.162Z,121.40
2019-01-03T09:25:38.165Z,121.17
2019-01-03T09:28:27.465Z,123.93
2019-01-03T09:31:24.962Z,127.37
2019-01-03T09:34:18.576Z,120.63
2019-01-03T09:37:14.327Z,127.77
2019-01-03T09:40:04.961Z,123.40
2019-01-03T09:43:07.544Z,122.67
2019-01-03T09:45:44.116Z,114.00
2019-01-03T09:48:13.860Z,122.77
2019-01-03T09:50:43.916Z,115.90
2019-01-03T09:53:12.491Z,125.97
2019-01-03T09:55:41.627Z,116.73
2019-01-03T09:58:10.984Z,125.17
2019-01-03T10:04:14.425Z,132.70
2019-01-03T10:06:44.562Z,119.63
2019-01-03T10:09:12.806Z,128.03
2019-01-03T10:11:41.004Z,132.97
2019-01-03T10:14:08.466Z,130.77
2019-01-03T10:16:36.268Z,128.37
2019-01-03T10:19:03.880Z,131.73
2019-01-03T10:21:31.354Z,127.10
2019-01-03T10:23:59.128Z,132.00
2019-01-03T10:26:26.659Z,127.30
2019-01-03T10:28:55.334Z,145.00
2019-01-03T10:31:22.830Z,132.13
2019-01-03T10:33:51.574Z,132.60
2019-01-03T10:36:24.275Z,122.27
2019-01-03T10:38:51.049Z,139.30
2019-01-03T10:41:18.543Z,132.10
2019-01-03T10:43:48.131Z,135.00
2019-01-03T10:46:17.349Z,140.37
2019-01-03T10:48:44.731Z,126.43
2019-01-03T10:51:12.127Z,138.27
2019-01-03T10:53:40.814Z,126.87
2019-01-03T10:56:09.640Z,130.43
2019-01-03T10:58:39.361Z,130.77
2019-01-03T11:01:07.085Z,131.70
2019-01-03T11:03:34.658Z,128.80
2019-01-03T11:06:02.133Z,127.33
2019-01-03T11:08:29.901Z,123.47
2019-01-03T11:11:02.108Z,121.47
2019-01-03T11:13:27.717Z,122.77
2019-01-03T11:15:55.898Z,130.30
2019-01-03T11:18:25.680Z,129.53
2019-01-03T11:20:54.822Z,121.07
2019-01-03T11:23:22.940Z,127.40
2019-01-03T11:25:52.008Z,124.00
2019-01-03T11:28:20.331Z,119.93
2019-01-03T11:30:47.667Z,124.20
2019-01-03T11:33:15.078Z,119.70
2019-01-03T11:35:44.610Z,125.90
2019-01-03T11:38:12.169Z,125.60
2019-01-03T11:40:39.816Z,118.07
2019-01-03T11:43:07.495Z,125.60
2019-01-03T11:45:36.272Z,126.40
2019-01-03T11:48:05.076Z,130.53
2019-01-03T11:50:33.955Z,125.17
2019-01-03T11:53:01.560Z,131.07
2019-01-03T11:55:29.630Z,123.07
2019-01-03T11:57:57.158Z,137.17
2019-01-03T12:00:24.774Z,127.43
2019-01-03T12:02:52.151Z,130.00
2019-01-03T12:05:19.689Z,125.43
2019-01-03T12:07:49.788Z,133.00
2019-01-03T12:10:19.060Z,131.03
2019-01-03T12:12:48.239Z,131.73
2019-01-03T12:15:17.662Z,123.63
2019-01-03T12:17:45.459Z,134.43
2019-01-03T12:20:12.787Z,120.20
2019-01-03T12:22:41.377Z,129.10
2019-01-03T12:25:09.661Z,146.30
2019-01-03T12:27:37.675Z,131.30
2019-01-03T12:30:09.340Z,126.03
2019-01-03T12:32:38.344Z,136.30
2019-01-03T12:35:06.699Z,118.90
2019-01-03T12:37:36.171Z,129.97
2019-01-03T12:40:06.002Z,123.13
2019-01-03T12:42:33.473Z,130.60
2019-01-03T12:45:00.844Z,121.37
2019-01-03T12:47:28.285Z,130.37
2019-01-03T12:49:56.138Z,121.27
2019-01-03T12:52:23.542Z,141.80
2019-01-03T12:54:51.043Z,130.77
2019-01-03T12:57:18.637Z,140.50
2019-01-03T12:59:46.043Z,130.17
2019-01-03T13:02:13.579Z,135.27
2019-01-03T13:04:41.030Z,126.47
2019-01-03T13:07:08.548Z,130.97
2019-01-03T13:09:35.896Z,122.47
2019-01-03T13:12:03.475Z,122.30
2019-01-03T13:14:30.924Z,123.03
2019-01-03T13:16:58.435Z,122.63
2019-01-03T13:19:26.458Z,125.77
2019-01-03T13:21:54.060Z,126.40
2019-01-03T13:24:21.415Z,128.50
2019-01-03T13:26:48.872Z,126.10
2019-01-03T13:29:16.694Z,122.43
2019-01-03T13:31:45.197Z,129.30
2019-01-03T13:34:12.697Z,133.20
2019-01-03T13:36:40.383Z,134.87
2019-01-03T13:39:07.952Z,129.10
2019-01-03T13:41:35.407Z,119.37
2019-01-03T13:44:03.028Z,126.83
2019-01-03T13:46:30.551Z,125.93
2019-01-03T13:48:58.158Z,127.23
2019-01-03T13:51:26.098Z,123.07
2019-01-03T13:53:53.438Z,125.37
2019-01-03T13:56:21.852Z,125.27
2019-01-03T13:58:49.888Z,118.53
2019-01-03T14:01:17.448Z,123.13
2019-01-03T14:03:45.150Z,118.43
2019-01-03T14:06:12.693Z,119.93
2019-01-03T14:08:40.112Z,121.93
2019-01-03T14:11:07.803Z,132.53
2019-01-03T14:13:35.432Z,128.07
2019-01-03T14:16:03.079Z,128.63
2019-01-03T14:18:30.528Z,125.93
2019-01-03T14:20:59.998Z,123.30
2019-01-03T14:23:27.549Z,121.40
2019-01-03T14:25:55.195Z,123.73
2019-01-03T14:28:22.764Z,125.93
2019-01-03T14:30:50.231Z,128.73
2019-01-03T14:33:20.440Z,142.40
2019-01-03T14:35:49.835Z,132.73
2019-01-03T14:38:19.382Z,127.60
2019-01-03T14:40:49.795Z,127.60
2019-01-03T14:43:18.674Z,124.20
2019-01-03T14:45:46.492Z,128.43
2019-01-03T14:48:14.055Z,125.87
2019-01-03T14:50:42.212Z,119.40
2019-01-03T14:53:09.702Z,125.53
2019-01-03T14:55:37.074Z,125.00
2019-01-03T14:58:04.687Z,123.67
2019-01-03T15:00:32.138Z,130.07
2019-01-03T15:02:59.529Z,133.80
2019-01-03T15:05:27.039Z,124.97
2019-01-03T15:07:54.500Z,136.97
2019-01-03T15:10:21.878Z,127.70
2019-01-03T15:12:49.268Z,136.67
2019-01-03T15:15:16.713Z,131.90
2019-01-03T15:17:44.539Z,141.87
2019-01-03T15:20:12.127Z,124.50
2019-01-03T15:22:40.612Z,143.90
2019-01-03T15:25:08.094Z,128.60
2019-01-03T15:27:35.526Z,146.70
2019-01-03T15:30:04.070Z,121.70
2019-01-03T15:32:31.494Z,137.83
2019-01-03T15:34:59.770Z,126.57
2019-01-03T15:37:27.264Z,144.20
2019-01-03T15:39:54.863Z,131.37
2019-01-03T15:42:22.951Z,139.77
2019-01-03T15:44:51.278Z,125.37
2019-01-03T15:47:18.884Z,155.33
2019-01-03T15:49:46.338Z,127.97
2019-01-03T15:52:15.242Z,145.67
2019-01-03T15:54:42.753Z,127.93
2019-01-03T15:57:10.254Z,137.50
2019-01-03T15:59:37.820Z,128.80
2019-01-03T16:02:06.323Z,131.97
2019-01-03T16:04:37.640Z,133.87
2019-01-03T16:07:06.062Z,133.93
2019-01-03T16:09:33.624Z,132.33
2019-01-03T16:12:00.962Z,127.27
2019-01-03T16:14:52.375Z,132.07
2019-01-03T16:17:19.943Z,129.63
2019-01-03T16:19:48.290Z,126.07
2019-01-03T16:22:15.745Z,132.53
2019-01-03T16:24:43.612Z,131.83
2019-01-03T16:27:11.254Z,132.37
2019-01-03T16:29:39.262Z,127.60
2019-01-03T16:32:06.804Z,129.37
2019-01-03T16:34:34.521Z,121.67
2019-01-03T16:37:02.173Z,125.63
2019-01-03T16:39:58.218Z,127.33
2019-01-03T16:42:42.370Z,130.77
2019-01-03T16:45:11.232Z,123.77
2019-01-03T16:47:38.930Z,140.03
2019-01-03T16:50:10.298Z,125.77
2019-01-03T16:52:37.902Z,132.60
2019-01-03T16:55:05.759Z,125.80
2019-01-03T16:57:33.691Z,142.80
2019-01-03T17:00:01.226Z,133.53
2019-01-03T17:02:34.306Z,139.47
2019-01-03T17:05:04.016Z,129.73
2019-01-03T17:08:01.312Z,143.60
2019-01-03T17:10:28.990Z,134.53
2019-01-03T17:12:56.398Z,144.10
2019-01-03T17:15:24.154Z,132.93
2019-01-03T17:17:51.848Z,138.27
2019-01-03T17:20:19.362Z,137.23
2019-01-03T17:22:47.070Z,141.13
2019-01-03T17:25:14.727Z,135.77
2019-01-03T17:27:42.372Z,145.57
2019-01-03T17:30:10.944Z,133.33
2019-01-03T17:32:39.223Z,142.03
2019-01-03T17:35:08.587Z,128.00
2019-01-03T17:37:36.350Z,135.70
2019-01-03T17:40:05.853Z,129.27
2019-01-03T17:42:33.459Z,140.67
2019-01-03T17:45:00.855Z,134.30
2019-01-03T17:47:30.515Z,136.13
2019-01-03T17:49:58.119Z,127.13
2019-01-03T17:52:25.704Z,141.77
2019-01-03T17:54:53.304Z,137.17
2019-01-03T17:57:21.590Z,137.70
2019-01-03T17:59:49.081Z,133.43
2019-01-03T18:02:18.134Z,136.33
2019-01-03T18:04:45.647Z,139.60
2019-01-03T18:07:13.558Z,153.37
2019-01-03T18:09:41.907Z,139.63
2019-01-03T18:12:09.520Z,140.03
2019-01-03T18:14:37.112Z,142.63
2019-01-03T18:17:04.780Z,135.57
2019-01-03T18:19:32.683Z,137.63
2019-01-03T18:22:00.405Z,137.73
2019-01-03T18:24:28.815Z,145.13
2019-01-03T18:26:57.162Z,129.30
2019-01-03T18:29:31.973Z,137.97
2019-01-03T18:32:04.376Z,136.53
2019-01-03T18:34:34.794Z,127.27
2019-01-03T18:37:03.918Z,136.00
2019-01-03T18:39:33.855Z,137.83
2019-01-03T18:42:04.208Z,156.50
2019-01-03T18:44:33.050Z,145.67
2019-01-03T18:47:04.940Z,188.63
2019-01-03T18:49:33.494Z,163.33
2019-01-03T18:52:01.034Z,151.53
2019-01-03T18:54:28.623Z,153.10
2019-01-03T18:56:56.089Z,154.10
2019-01-03T18:59:23.759Z,144.77
2019-01-03T19:01:51.482Z,143.90
2019-01-03T19:04:19.114Z,153.20
2019-01-03T19:06:46.636Z,154.03
2019-01-03T19:09:14.389Z,150.80
2019-01-03T19:11:41.919Z,145.17
2019-01-03T19:14:10.169Z,143.30
2019-01-03T19:16:37.935Z,142.33
2019-01-03T19:19:06.543Z,134.43
2019-01-03T19:21:36.135Z,143.73
2019-01-03T19:24:03.959Z,148.23
2019-01-03T19:26:32.471Z,147.83
2019-01-03T19:29:00.341Z,147.10
2019-01-03T19:31:28.108Z,147.30
2019-01-03T19:33:55.793Z,142.03
2019-01-03T19:36:23.569Z,150.27
2019-01-03T19:38:50.994Z,145.00
2019-01-03T19:41:18.792Z,148.00
2019-01-03T19:43:47.660Z,150.53
2019-01-03T19:46:15.232Z,152.30
2019-01-03T19:48:43.494Z,141.80
2019-01-03T19:51:11.930Z,159.90
2019-01-03T19:53:45.308Z,145.53
2019-01-03T19:56:15.913Z,147.57
2019-01-03T19:58:45.509Z,140.43
2019-01-03T20:01:15.737Z,142.67
2019-01-03T20:03:44.208Z,140.40
2019-01-03T20:06:13.438Z,143.07
2019-01-03T20:08:42.029Z,138.00
2019-01-03T20:11:10.165Z,136.13
2019-01-03T20:13:38.551Z,134.90
2019-01-03T20:16:07.815Z,137.27
2019-01-03T20:18:36.612Z,133.03
2019-01-03T20:21:08.898Z,138.23
2019-01-03T20:23:37.597Z,144.07
2019-01-03T20:26:07.530Z,133.03
2019-01-03T20:28:35.714Z,138.60
2019-01-03T20:31:05.761Z,144.57
2019-01-03T20:33:33.540Z,144.93
2019-01-03T20:36:01.203Z,138.30
2019-01-03T20:38:29.183Z,139.07
2019-01-03T20:40:58.150Z,137.63
2019-01-03T20:43:26.038Z,142.77
2019-01-03T20:45:54.024Z,139.57
2019-01-03T20:48:24.912Z,147.27
2019-01-03T20:50:52.847Z,145.10
2019-01-03T20:53:21.017Z,139.40
2019-01-03T20:55:51.322Z,145.37
2019-01-03T20:58:18.915Z,136.87
2019-01-03T21:00:49.039Z,137.23
2019-01-03T21:03:18.955Z,145.60
2019-01-03T21:05:47.092Z,145.43
2019-01-03T21:08:20.159Z,139.30
2019-01-03T21:10:47.944Z,142.00
2019-01-03T21:13:16.466Z,140.83
2019-01-03T21:15:45.179Z,148.60
2019-01-03T21:18:12.858Z,138.87
2019-01-03T21:20:40.504Z,144.20
2019-01-03T21:23:11.251Z,152.37
2019-01-03T21:25:39.328Z,139.20
2019-01-03T21:28:09.236Z,146.23
2019-01-03T21:30:37.117Z,135.67
2019-01-03T21:33:04.915Z,151.30
2019-01-03T21:35:32.469Z,137.77
2019-01-03T21:37:59.938Z,154.37
2019-01-03T21:40:27.944Z,154.30
2019-01-03T21:42:55.601Z,150.67
2019-01-03T21:45:23.151Z,144.93
2019-01-03T21:47:50.825Z,146.53
2019-01-03T21:50:19.729Z,152.07
2019-01-03T21:52:47.373Z,143.00
2019-01-03T21:55:14.867Z,141.20
2019-01-03T21:57:42.815Z,147.33
2019-01-03T22:00:11.988Z,139.67
2019-01-03T22:02:39.701Z,149.63
2019-01-03T22:05:07.546Z,133.63
2019-01-03T22:07:35.238Z,145.93
2019-01-03T22:10:03.127Z,137.00
2019-01-03T22:12:31.759Z,147.73
2019-01-03T22:14:59.217Z,145.23
2019-01-03T22:17:26.810Z,142.77
2019-01-03T22:19:54.334Z,140.80
2019-01-03T22:22:21.928Z,151.40
2019-01-03T22:24:49.348Z,140.37
2019-01-03T22:27:16.801Z,149.83
2019-01-03T22:29:44.471Z,132.70
2019-01-03T22:32:12.056Z,146.80
2019-01-03T22:34:39.795Z,133.37
2019-01-03T22:37:07.466Z,134.63
2019-01-03T22:39:35.006Z,136.27
2019-01-03T22:42:02.654Z,138.03
2019-01-03T22:44:30.309Z,139.27
2019-01-03T22:46:57.909Z,143.60
2019-01-03T22:49:25.432Z,134.40
2019-01-03T22:51:53.247Z,143.20
2019-01-03T22:54:20.697Z,143.63
2019-01-03T22:56:48.364Z,136.43
2019-01-03T22:59:16.098Z,132.33
2019-01-03T23:01:43.696Z,135.37
2019-01-03T23:04:12.752Z,130.63
2019-01-03T23:06:40.226Z,126.40
2019-01-03T23:09:07.950Z,133.53
2019-01-03T23:11:35.427Z,138.40
2019-01-03T23:14:02.896Z,131.57
2019-01-03T23:16:30.310Z,134.70
2019-01-03T23:18:58.078Z,126.63
2019-01-03T23:21:25.546Z,137.30
2019-01-03T23:23:53.125Z,133.57
2019-01-03T23:26:21.539Z,140.27
2019-01-03T23:28:49.037Z,130.67
2019-01-03T23:31:16.486Z,137.43
2019-01-03T23:33:43.984Z,133.27
2019-01-03T23:36:11.604Z,130.67
2019-01-03T23:38:39.049Z,135.17
2019-01-03T23:41:06.441Z,126.67
2019-01-03T23:43:34.159Z,129.13
2019-01-03T23:46:01.746Z,135.93
2019-01-03T23:48:29.648Z,136.37
2019-01-03T23:50:57.365Z,123.13
2019-01-03T23:53:24.856Z,125.40
2019-01-03T23:55:56.502Z,132.87
2019-01-03T23:58:24.168Z,132.20
